sensor_id;sensor_type;location;lat;lon;timestamp;pressure;altitude;pressure_sealevel;temperature;humidity
64644;BME280;51056;50.330;7.914;2023-05-09T00:02:18;100926.06;;;13.37;100.00
64644;BME280;51056;50.330;7.914;2023-05-09T00:05:21;100945.03;;;13.42;100.00
64644;BME280;51056;50.330;7.914;2023-05-09T00:08:24;100936.81;;;13.48;100.00
64644;BME280;51056;50.330;7.914;2023-05-09T00:11:28;100937.50;;;13.36;100.00
64644;BME280;51056;50.330;7.914;2023-05-09T00:14:31;100936.06;;;13.30;100.00
64644;BME280;51056;50.330;7.914;2023-05-09T00:17:35;100934.88;;;13.20;100.00
64644;BME280;51056;50.330;7.914;2023-05-09T00:20:40;100929.97;;;13.14;100.00
64644;BME280;51056;50.330;7.914;2023-05-09T00:23:43;100933.38;;;13.32;100.00
64644;BME280;51056;50.330;7.914;2023-05-09T00:26:46;100921.75;;;13.36;100.00
64644;BME280;51056;50.330;7.914;2023-05-09T00:29:53;100922.69;;;13.35;100.00
64644;BME280;51056;50.330;7.914;2023-05-09T00:32:56;100919.47;;;13.30;100.00
64644;BME280;51056;50.330;7.914;2023-05-09T00:35:59;100922.88;;;13.32;100.00
64644;BME280;51056;50.330;7.914;2023-05-09T00:39:03;100915.75;;;13.34;100.00
64644;BME280;51056;50.330;7.914;2023-05-09T00:42:07;100912.00;;;13.38;100.00
64644;BME280;51056;50.330;7.914;2023-05-09T00:45:10;100905.91;;;13.37;100.00
64644;BME280;51056;50.330;7.914;2023-05-09T00:48:14;100914.47;;;13.41;100.00
64644;BME280;51056;50.330;7.914;2023-05-09T00:51:19;100900.38;;;13.42;100.00
64644;BME280;51056;50.330;7.914;2023-05-09T00:54:22;100900.66;;;13.37;100.00
64644;BME280;51056;50.330;7.914;2023-05-09T00:57:25;100900.53;;;13.24;100.00
64644;BME280;51056;50.330;7.914;2023-05-09T01:00:29;100893.22;;;13.30;100.00
64644;BME280;51056;50.330;7.914;2023-05-09T01:03:33;100891.84;;;13.38;100.00
64644;BME280;51056;50.330;7.914;2023-05-09T01:10:09;100871.50;;;13.42;100.00
64644;BME280;51056;50.330;7.914;2023-05-09T01:16:38;100865.88;;;13.48;99.35
64644;BME280;51056;50.330;7.914;2023-05-09T01:19:58;100860.81;;;13.45;100.00
64644;BME280;51056;50.330;7.914;2023-05-09T01:29:56;100856.44;;;13.30;100.00
64644;BME280;51056;50.330;7.914;2023-05-09T01:33:00;100846.88;;;13.29;100.00
64644;BME280;51056;50.330;7.914;2023-05-09T01:36:11;100853.94;;;13.28;100.00
64644;BME280;51056;50.330;7.914;2023-05-09T01:39:17;100854.59;;;13.16;100.00
64644;BME280;51056;50.330;7.914;2023-05-09T01:42:21;100848.00;;;13.24;100.00
64644;BME280;51056;50.330;7.914;2023-05-09T01:45:31;100842.13;;;13.19;100.00
64644;BME280;51056;50.330;7.914;2023-05-09T01:48:36;100846.63;;;13.17;100.00
64644;BME280;51056;50.330;7.914;2023-05-09T01:51:41;100843.25;;;13.15;100.00
64644;BME280;51056;50.330;7.914;2023-05-09T01:54:47;100855.25;;;13.19;100.00
64644;BME280;51056;50.330;7.914;2023-05-09T01:57:52;100842.13;;;13.19;100.00
64644;BME280;51056;50.330;7.914;2023-05-09T02:00:56;100853.00;;;13.13;100.00
64644;BME280;51056;50.330;7.914;2023-05-09T02:04:02;100850.19;;;13.16;100.00
64644;BME280;51056;50.330;7.914;2023-05-09T02:07:08;100858.06;;;13.16;100.00
64644;BME280;51056;50.330;7.914;2023-05-09T02:10:17;100847.66;;;13.15;100.00
64644;BME280;51056;50.330;7.914;2023-05-09T02:13:22;100848.06;;;13.23;100.00
64644;BME280;51056;50.330;7.914;2023-05-09T02:16:26;100846.63;;;13.17;100.00
64644;BME280;51056;50.330;7.914;2023-05-09T02:19:30;100830.50;;;13.23;100.00
64644;BME280;51056;50.330;7.914;2023-05-09T02:22:33;100834.44;;;13.16;100.00
64644;BME280;51056;50.330;7.914;2023-05-09T02:25:36;100834.25;;;13.19;100.00
64644;BME280;51056;50.330;7.914;2023-05-09T02:28:43;100831.34;;;13.24;100.00
64644;BME280;51056;50.330;7.914;2023-05-09T02:31:49;100829.78;;;13.21;100.00
64644;BME280;51056;50.330;7.914;2023-05-09T02:34:57;100826.47;;;13.18;100.00
64644;BME280;51056;50.330;7.914;2023-05-09T02:38:03;100820.53;;;13.14;100.00
64644;BME280;51056;50.330;7.914;2023-05-09T02:41:06;100824.03;;;13.15;100.00
64644;BME280;51056;50.330;7.914;2023-05-09T02:44:09;100817.19;;;13.12;100.00
64644;BME280;51056;50.330;7.914;2023-05-09T02:47:12;100820.72;;;13.11;100.00
64644;BME280;51056;50.330;7.914;2023-05-09T02:50:16;100817.66;;;13.19;100.00
64644;BME280;51056;50.330;7.914;2023-05-09T02:53:20;100828.44;;;12.98;100.00
64644;BME280;51056;50.330;7.914;2023-05-09T02:56:26;100829.06;;;13.03;100.00
64644;BME280;51056;50.330;7.914;2023-05-09T02:59:29;100819.97;;;13.09;100.00
64644;BME280;51056;50.330;7.914;2023-05-09T03:02:37;100815.84;;;13.05;100.00
64644;BME280;51056;50.330;7.914;2023-05-09T03:05:43;100810.59;;;13.05;100.00
64644;BME280;51056;50.330;7.914;2023-05-09T03:08:46;100813.78;;;13.10;100.00
64644;BME280;51056;50.330;7.914;2023-05-09T03:11:49;100811.09;;;13.12;100.00
64644;BME280;51056;50.330;7.914;2023-05-09T03:14:53;100813.78;;;13.10;100.00
64644;BME280;51056;50.330;7.914;2023-05-09T03:17:56;100804.78;;;13.14;100.00
64644;BME280;51056;50.330;7.914;2023-05-09T03:21:00;100797.00;;;13.13;100.00
64644;BME280;51056;50.330;7.914;2023-05-09T03:24:03;100801.97;;;13.17;100.00
64644;BME280;51056;50.330;7.914;2023-05-09T03:27:06;100800.47;;;13.13;100.00
64644;BME280;51056;50.330;7.914;2023-05-09T03:30:10;100789.72;;;13.18;100.00
64644;BME280;51056;50.330;7.914;2023-05-09T03:33:13;100785.31;;;13.18;100.00
64644;BME280;51056;50.330;7.914;2023-05-09T03:36:17;100784.66;;;13.15;100.00
64644;BME280;51056;50.330;7.914;2023-05-09T03:39:20;100779.22;;;13.18;100.00
64644;BME280;51056;50.330;7.914;2023-05-09T03:42:27;100780.47;;;13.26;100.00
64644;BME280;51056;50.330;7.914;2023-05-09T03:45:36;100773.69;;;13.22;100.00
64644;BME280;51056;50.330;7.914;2023-05-09T03:48:45;100772.06;;;13.20;100.00
64644;BME280;51056;50.330;7.914;2023-05-09T03:51:49;100771.91;;;13.23;100.00
64644;BME280;51056;50.330;7.914;2023-05-09T03:54:54;100769.56;;;13.18;100.00
64644;BME280;51056;50.330;7.914;2023-05-09T03:57:57;100772.38;;;13.15;100.00
64644;BME280;51056;50.330;7.914;2023-05-09T04:01:01;100777.03;;;13.10;100.00
64644;BME280;51056;50.330;7.914;2023-05-09T04:04:04;100771.59;;;13.13;100.00
64644;BME280;51056;50.330;7.914;2023-05-09T04:07:10;100768.13;;;13.13;100.00
64644;BME280;51056;50.330;7.914;2023-05-09T04:10:14;100765.34;;;13.16;100.00
64644;BME280;51056;50.330;7.914;2023-05-09T04:13:17;100763.72;;;13.13;100.00
64644;BME280;51056;50.330;7.914;2023-05-09T04:16:21;100767.19;;;13.14;100.00
64644;BME280;51056;50.330;7.914;2023-05-09T04:19:25;100767.66;;;13.20;100.00
64644;BME280;51056;50.330;7.914;2023-05-09T04:22:28;100765.81;;;13.22;100.00
64644;BME280;51056;50.330;7.914;2023-05-09T04:25:32;100769.75;;;13.15;100.00
64644;BME280;51056;50.330;7.914;2023-05-09T04:28:38;100765.34;;;13.16;100.00
64644;BME280;51056;50.330;7.914;2023-05-09T04:31:41;100761.56;;;13.20;100.00
64644;BME280;51056;50.330;7.914;2023-05-09T04:34:48;100769.38;;;13.21;100.00
64644;BME280;51056;50.330;7.914;2023-05-09T04:37:59;100765.34;;;13.16;100.00
64644;BME280;51056;50.330;7.914;2023-05-09T04:41:03;100757.44;;;13.16;100.00
64644;BME280;51056;50.330;7.914;2023-05-09T04:44:10;100761.69;;;13.18;100.00
64644;BME280;51056;50.330;7.914;2023-05-09T04:47:13;100756.00;;;13.26;100.00
64644;BME280;51056;50.330;7.914;2023-05-09T04:50:20;100739.03;;;13.32;100.00
64644;BME280;51056;50.330;7.914;2023-05-09T04:53:23;100738.09;;;13.33;100.00
64644;BME280;51056;50.330;7.914;2023-05-09T04:56:27;100744.28;;;13.32;100.00
64644;BME280;51056;50.330;7.914;2023-05-09T04:59:30;100740.91;;;13.30;100.00
64644;BME280;51056;50.330;7.914;2023-05-09T05:02:34;100740.06;;;13.29;100.00
64644;BME280;51056;50.330;7.914;2023-05-09T05:05:37;100734.81;;;13.29;100.00
64644;BME280;51056;50.330;7.914;2023-05-09T05:08:42;100731.91;;;13.34;100.00
64644;BME280;51056;50.330;7.914;2023-05-09T05:11:47;100732.66;;;13.36;100.00
64644;BME280;51056;50.330;7.914;2023-05-09T05:14:50;100727.31;;;13.37;100.00
64644;BME280;51056;50.330;7.914;2023-05-09T05:18:04;100726.75;;;13.32;100.00
64644;BME280;51056;50.330;7.914;2023-05-09T05:21:10;100726.25;;;13.40;100.00
64644;BME280;51056;50.330;7.914;2023-05-09T05:24:19;100723.66;;;13.54;100.00
64644;BME280;51056;50.330;7.914;2023-05-09T05:27:23;100721.97;;;13.53;100.00
64644;BME280;51056;50.330;7.914;2023-05-09T05:30:28;100725.34;;;13.55;100.00
64644;BME280;51056;50.330;7.914;2023-05-09T05:33:33;100721.50;;;13.61;100.00
64644;BME280;51056;50.330;7.914;2023-05-09T05:36:40;100728.06;;;13.54;100.00
64644;BME280;51056;50.330;7.914;2023-05-09T05:39:44;100725.41;;;13.68;100.00
64644;BME280;51056;50.330;7.914;2023-05-09T05:42:49;100725.88;;;13.75;100.00
64644;BME280;51056;50.330;7.914;2023-05-09T05:45:53;100726.63;;;13.77;100.00
64644;BME280;51056;50.330;7.914;2023-05-09T05:49:01;100718.56;;;13.80;100.00
64644;BME280;51056;50.330;7.914;2023-05-09T05:52:07;100722.88;;;13.81;100.00
64644;BME280;51056;50.330;7.914;2023-05-09T05:55:11;100721.75;;;13.85;100.00
64644;BME280;51056;50.330;7.914;2023-05-09T05:58:16;100716.69;;;13.82;100.00
64644;BME280;51056;50.330;7.914;2023-05-09T06:01:19;100720.31;;;13.93;100.00
64644;BME280;51056;50.330;7.914;2023-05-09T06:04:23;100714.88;;;13.96;99.88
64644;BME280;51056;50.330;7.914;2023-05-09T06:07:26;100707.75;;;13.99;100.00
64644;BME280;51056;50.330;7.914;2023-05-09T06:10:30;100708.19;;;14.05;100.00
64644;BME280;51056;50.330;7.914;2023-05-09T06:13:33;100700.00;;;14.10;100.00
64644;BME280;51056;50.330;7.914;2023-05-09T06:16:40;100694.25;;;14.17;100.00
64644;BME280;51056;50.330;7.914;2023-05-09T06:19:44;100698.56;;;14.18;100.00
64644;BME280;51056;50.330;7.914;2023-05-09T06:22:47;100685.72;;;14.14;100.00
64644;BME280;51056;50.330;7.914;2023-05-09T06:25:50;100694.69;;;14.24;100.00
64644;BME280;51056;50.330;7.914;2023-05-09T06:28:53;100684.72;;;14.29;100.00
64644;BME280;51056;50.330;7.914;2023-05-09T06:31:58;100684.22;;;14.37;99.90
64644;BME280;51056;50.330;7.914;2023-05-09T06:35:01;100674.69;;;14.49;99.51
64644;BME280;51056;50.330;7.914;2023-05-09T06:38:04;100673.69;;;14.64;98.53
64644;BME280;51056;50.330;7.914;2023-05-09T06:41:08;100662.75;;;14.70;98.18
64644;BME280;51056;50.330;7.914;2023-05-09T06:44:12;100655.41;;;14.75;100.00
64644;BME280;51056;50.330;7.914;2023-05-09T06:47:16;100653.53;;;14.90;99.68
64644;BME280;51056;50.330;7.914;2023-05-09T06:50:19;100648.75;;;15.08;98.75
64644;BME280;51056;50.330;7.914;2023-05-09T06:53:22;100644.66;;;15.17;97.22
64644;BME280;51056;50.330;7.914;2023-05-09T06:56:26;100644.03;;;15.26;96.42
64644;BME280;51056;50.330;7.914;2023-05-09T06:59:32;100647.38;;;15.28;97.97
64644;BME280;51056;50.330;7.914;2023-05-09T07:02:36;100634.19;;;15.28;97.44
64644;BME280;51056;50.330;7.914;2023-05-09T07:05:43;100638.50;;;15.42;96.43
64644;BME280;51056;50.330;7.914;2023-05-09T07:08:46;100630.28;;;15.46;96.08
64644;BME280;51056;50.330;7.914;2023-05-09T07:11:49;100621.59;;;15.57;95.52
64644;BME280;51056;50.330;7.914;2023-05-09T07:14:53;100618.63;;;15.62;96.21
64644;BME280;51056;50.330;7.914;2023-05-09T07:17:56;100609.38;;;15.69;95.42
64644;BME280;51056;50.330;7.914;2023-05-09T07:20:59;100615.25;;;15.72;95.60
64644;BME280;51056;50.330;7.914;2023-05-09T07:24:03;100602.16;;;15.84;94.38
64644;BME280;51056;50.330;7.914;2023-05-09T07:27:06;100597.25;;;15.90;94.48
64644;BME280;51056;50.330;7.914;2023-05-09T07:30:10;100600.16;;;15.98;95.09
64644;BME280;51056;50.330;7.914;2023-05-09T07:33:13;100592.31;;;16.10;94.15
64644;BME280;51056;50.330;7.914;2023-05-09T07:36:16;100592.59;;;16.18;94.63
64644;BME280;51056;50.330;7.914;2023-05-09T07:39:19;100582.41;;;16.24;94.57
64644;BME280;51056;50.330;7.914;2023-05-09T07:42:23;100587.47;;;16.39;94.01
64644;BME280;51056;50.330;7.914;2023-05-09T07:45:26;100579.94;;;16.45;93.59
64644;BME280;51056;50.330;7.914;2023-05-09T07:48:32;100573.00;;;16.44;93.98
64644;BME280;51056;50.330;7.914;2023-05-09T07:51:35;100565.06;;;16.56;93.58
64644;BME280;51056;50.330;7.914;2023-05-09T07:54:39;100561.03;;;16.63;94.33
64644;BME280;51056;50.330;7.914;2023-05-09T07:57:43;100561.72;;;16.65;94.32
64644;BME280;51056;50.330;7.914;2023-05-09T08:00:47;100556.69;;;16.62;93.99
64644;BME280;51056;50.330;7.914;2023-05-09T08:03:50;100542.91;;;16.69;92.77
64644;BME280;51056;50.330;7.914;2023-05-09T08:06:53;100550.25;;;16.66;93.18
64644;BME280;51056;50.330;7.914;2023-05-09T08:09:57;100538.72;;;16.67;93.82
64644;BME280;51056;50.330;7.914;2023-05-09T08:13:00;100534.41;;;16.66;94.96
64644;BME280;51056;50.330;7.914;2023-05-09T08:16:06;100529.84;;;16.90;93.52
64644;BME280;51056;50.330;7.914;2023-05-09T08:19:09;100531.78;;;16.88;91.19
64644;BME280;51056;50.330;7.914;2023-05-09T08:22:17;100531.31;;;16.83;91.01
64644;BME280;51056;50.330;7.914;2023-05-09T08:25:21;100515.09;;;16.77;91.47
64644;BME280;51056;50.330;7.914;2023-05-09T08:28:24;100519.41;;;16.78;92.48
64644;BME280;51056;50.330;7.914;2023-05-09T08:31:30;100511.84;;;16.73;92.63
64644;BME280;51056;50.330;7.914;2023-05-09T08:34:34;100514.84;;;16.80;92.79
64644;BME280;51056;50.330;7.914;2023-05-09T08:37:37;100506.41;;;16.74;92.89
64644;BME280;51056;50.330;7.914;2023-05-09T08:40:40;100508.84;;;16.78;92.68
64644;BME280;51056;50.330;7.914;2023-05-09T08:43:44;100503.47;;;16.79;93.59
64644;BME280;51056;50.330;7.914;2023-05-09T08:46:54;100496.25;;;16.92;92.82
64644;BME280;51056;50.330;7.914;2023-05-09T08:49:58;100492.53;;;16.95;92.75
64644;BME280;51056;50.330;7.914;2023-05-09T08:53:01;100485.06;;;17.00;93.27
64644;BME280;51056;50.330;7.914;2023-05-09T08:56:05;100484.47;;;17.08;93.04
64644;BME280;51056;50.330;7.914;2023-05-09T08:59:09;100481.91;;;17.17;93.11
64644;BME280;51056;50.330;7.914;2023-05-09T09:02:13;100484.19;;;17.22;93.27
64644;BME280;51056;50.330;7.914;2023-05-09T09:05:17;100478.53;;;17.27;92.23
64644;BME280;51056;50.330;7.914;2023-05-09T09:08:21;100481.78;;;17.19;91.11
64644;BME280;51056;50.330;7.914;2023-05-09T09:11:26;100483.34;;;17.22;91.14
64644;BME280;51056;50.330;7.914;2023-05-09T09:14:32;100474.44;;;17.23;90.76
64644;BME280;51056;50.330;7.914;2023-05-09T09:17:46;100464.84;;;17.22;92.03
64644;BME280;51056;50.330;7.914;2023-05-09T09:20:55;100466.84;;;17.29;93.52
64644;BME280;51056;50.330;7.914;2023-05-09T09:23:59;100455.69;;;17.37;92.56
64644;BME280;51056;50.330;7.914;2023-05-09T09:27:04;100454.28;;;17.54;90.38
64644;BME280;51056;50.330;7.914;2023-05-09T09:30:09;100441.03;;;17.65;86.67
64644;BME280;51056;50.330;7.914;2023-05-09T09:33:21;100434.00;;;17.75;84.69
64644;BME280;51056;50.330;7.914;2023-05-09T09:36:31;100439.63;;;17.82;85.20
64644;BME280;51056;50.330;7.914;2023-05-09T09:39:34;100429.47;;;17.77;84.65
64644;BME280;51056;50.330;7.914;2023-05-09T09:42:45;100426.56;;;17.69;83.50
64644;BME280;51056;50.330;7.914;2023-05-09T09:45:49;100430.97;;;17.59;83.97
64644;BME280;51056;50.330;7.914;2023-05-09T09:48:57;100420.50;;;17.57;81.98
64644;BME280;51056;50.330;7.914;2023-05-09T09:52:02;100416.59;;;17.52;81.90
64644;BME280;51056;50.330;7.914;2023-05-09T09:55:06;100421.03;;;17.72;81.88
64644;BME280;51056;50.330;7.914;2023-05-09T09:58:17;100416.16;;;17.88;81.68
64644;BME280;51056;50.330;7.914;2023-05-09T10:01:20;100413.47;;;17.67;82.71
64644;BME280;51056;50.330;7.914;2023-05-09T10:04:25;100406.50;;;17.66;81.96
64644;BME280;51056;50.330;7.914;2023-05-09T10:07:32;100401.66;;;17.51;80.90
64644;BME280;51056;50.330;7.914;2023-05-09T10:10:37;100403.72;;;17.79;80.69
64644;BME280;51056;50.330;7.914;2023-05-09T10:13:44;100397.31;;;18.03;80.07
64644;BME280;51056;50.330;7.914;2023-05-09T10:16:48;100391.63;;;18.07;78.78
64644;BME280;51056;50.330;7.914;2023-05-09T10:19:54;100388.50;;;18.02;78.50
64644;BME280;51056;50.330;7.914;2023-05-09T10:23:00;100398.31;;;17.81;79.58
64644;BME280;51056;50.330;7.914;2023-05-09T10:26:19;100394.09;;;17.78;79.72
64644;BME280;51056;50.330;7.914;2023-05-09T10:29:26;100385.50;;;17.65;80.97
64644;BME280;51056;50.330;7.914;2023-05-09T10:32:47;100395.72;;;17.37;82.54
64644;BME280;51056;50.330;7.914;2023-05-09T10:35:54;100387.50;;;17.19;84.36
64644;BME280;51056;50.330;7.914;2023-05-09T10:39:00;100383.75;;;17.33;83.52
64644;BME280;51056;50.330;7.914;2023-05-09T10:42:06;100385.84;;;17.18;84.15
64644;BME280;51056;50.330;7.914;2023-05-09T10:45:11;100383.25;;;17.28;83.68
64644;BME280;51056;50.330;7.914;2023-05-09T10:48:16;100372.59;;;17.51;82.76
64644;BME280;51056;50.330;7.914;2023-05-09T10:51:20;100375.06;;;17.84;81.57
64644;BME280;51056;50.330;7.914;2023-05-09T10:54:29;100377.50;;;17.97;80.72
64644;BME280;51056;50.330;7.914;2023-05-09T10:57:38;100364.47;;;18.15;79.95
64644;BME280;51056;50.330;7.914;2023-05-09T11:00:41;100355.03;;;18.12;80.26
64644;BME280;51056;50.330;7.914;2023-05-09T11:03:52;100349.81;;;18.32;79.58
64644;BME280;51056;50.330;7.914;2023-05-09T11:06:58;100345.91;;;18.36;79.11
64644;BME280;51056;50.330;7.914;2023-05-09T11:10:16;100343.81;;;18.40;78.88
64644;BME280;51056;50.330;7.914;2023-05-09T11:13:23;100330.75;;;18.48;78.92
64644;BME280;51056;50.330;7.914;2023-05-09T11:16:27;100327.94;;;18.40;78.20
64644;BME280;51056;50.330;7.914;2023-05-09T11:19:33;100320.97;;;18.39;78.27
64644;BME280;51056;50.330;7.914;2023-05-09T11:22:41;100320.47;;;18.54;78.35
64644;BME280;51056;50.330;7.914;2023-05-09T11:25:45;100307.28;;;18.84;78.08
64644;BME280;51056;50.330;7.914;2023-05-09T11:28:53;100305.19;;;18.97;76.40
64644;BME280;51056;50.330;7.914;2023-05-09T11:32:06;100297.53;;;18.84;75.67
64644;BME280;51056;50.330;7.914;2023-05-09T11:35:17;100287.09;;;18.83;74.66
64644;BME280;51056;50.330;7.914;2023-05-09T11:38:21;100283.44;;;18.93;74.32
64644;BME280;51056;50.330;7.914;2023-05-09T11:41:25;100274.50;;;18.94;74.99
64644;BME280;51056;50.330;7.914;2023-05-09T11:44:30;100267.94;;;19.27;74.24
64644;BME280;51056;50.330;7.914;2023-05-09T11:47:36;100255.00;;;19.52;74.18
64644;BME280;51056;50.330;7.914;2023-05-09T11:50:40;100255.03;;;19.42;72.33
64644;BME280;51056;50.330;7.914;2023-05-09T11:53:44;100249.97;;;19.59;72.90
64644;BME280;51056;50.330;7.914;2023-05-09T11:56:49;100239.97;;;19.90;71.70
64644;BME280;51056;50.330;7.914;2023-05-09T11:59:55;100238.81;;;19.55;71.73
64644;BME280;51056;50.330;7.914;2023-05-09T12:02:59;100236.69;;;19.68;71.36
64644;BME280;51056;50.330;7.914;2023-05-09T12:06:02;100232.13;;;19.51;71.16
64644;BME280;51056;50.330;7.914;2023-05-09T12:09:08;100230.72;;;19.57;69.99
64644;BME280;51056;50.330;7.914;2023-05-09T12:12:12;100227.13;;;19.48;70.71
64644;BME280;51056;50.330;7.914;2023-05-09T12:15:16;100220.78;;;19.59;70.55
64644;BME280;51056;50.330;7.914;2023-05-09T12:18:22;100213.69;;;19.59;71.39
64644;BME280;51056;50.330;7.914;2023-05-09T12:21:25;100205.34;;;19.54;71.20
64644;BME280;51056;50.330;7.914;2023-05-09T12:24:34;100189.34;;;19.73;71.16
64644;BME280;51056;50.330;7.914;2023-05-09T12:27:39;100203.97;;;19.50;71.17
64644;BME280;51056;50.330;7.914;2023-05-09T12:30:43;100188.91;;;19.41;70.92
64644;BME280;51056;50.330;7.914;2023-05-09T12:33:47;100182.44;;;19.53;71.86
64644;BME280;51056;50.330;7.914;2023-05-09T12:36:50;100174.34;;;19.55;71.43
64644;BME280;51056;50.330;7.914;2023-05-09T12:40:11;100169.06;;;19.45;72.16
64644;BME280;51056;50.330;7.914;2023-05-09T12:43:17;100171.59;;;19.37;72.46
64644;BME280;51056;50.330;7.914;2023-05-09T12:46:27;100175.53;;;19.33;71.31
64644;BME280;51056;50.330;7.914;2023-05-09T12:49:31;100156.03;;;19.24;71.68
64644;BME280;51056;50.330;7.914;2023-05-09T12:52:36;100163.34;;;19.12;72.58
64644;BME280;51056;50.330;7.914;2023-05-09T12:55:40;100168.34;;;19.15;72.02
64644;BME280;51056;50.330;7.914;2023-05-09T12:58:54;100165.25;;;19.20;72.12
64644;BME280;51056;50.330;7.914;2023-05-09T13:01:59;100158.25;;;19.28;72.42
64644;BME280;51056;50.330;7.914;2023-05-09T13:05:17;100163.88;;;19.16;72.80
64644;BME280;51056;50.330;7.914;2023-05-09T13:08:21;100158.03;;;19.12;73.02
64644;BME280;51056;50.330;7.914;2023-05-09T13:11:25;100148.00;;;19.06;74.03
64644;BME280;51056;50.330;7.914;2023-05-09T13:14:29;100144.94;;;19.01;73.58
64644;BME280;51056;50.330;7.914;2023-05-09T13:17:32;100142.47;;;18.90;73.87
64644;BME280;51056;50.330;7.914;2023-05-09T13:20:36;100142.63;;;18.78;74.27
64644;BME280;51056;50.330;7.914;2023-05-09T13:23:42;100140.81;;;18.59;74.98
64644;BME280;51056;50.330;7.914;2023-05-09T13:26:47;100139.31;;;18.76;74.36
64644;BME280;51056;50.330;7.914;2023-05-09T13:29:51;100136.63;;;18.86;75.57
64644;BME280;51056;50.330;7.914;2023-05-09T13:32:55;100135.09;;;18.84;76.23
64644;BME280;51056;50.330;7.914;2023-05-09T13:35:58;100127.97;;;18.94;75.74
64644;BME280;51056;50.330;7.914;2023-05-09T13:39:12;100119.75;;;18.87;76.50
64644;BME280;51056;50.330;7.914;2023-05-09T13:42:16;100120.75;;;18.86;76.87
64644;BME280;51056;50.330;7.914;2023-05-09T13:45:19;100112.34;;;18.91;76.35
64644;BME280;51056;50.330;7.914;2023-05-09T13:52:20;100106.25;;;18.80;76.56
64644;BME280;51056;50.330;7.914;2023-05-09T13:55:32;100106.53;;;18.77;77.08
64644;BME280;51056;50.330;7.914;2023-05-09T13:58:45;100098.03;;;18.74;77.42
64644;BME280;51056;50.330;7.914;2023-05-09T14:02:38;100099.00;;;18.63;76.77
64644;BME280;51056;50.330;7.914;2023-05-09T14:06:26;100091.91;;;18.64;77.75
64644;BME280;51056;50.330;7.914;2023-05-09T14:09:39;100088.00;;;18.68;77.74
64644;BME280;51056;50.330;7.914;2023-05-09T14:12:49;100077.81;;;18.63;76.84
64644;BME280;51056;50.330;7.914;2023-05-09T14:15:59;100073.94;;;18.77;77.08
64644;BME280;51056;50.330;7.914;2023-05-09T14:19:06;100071.13;;;18.78;77.19
64644;BME280;51056;50.330;7.914;2023-05-09T14:22:36;100053.03;;;18.64;78.34
64644;BME280;51056;50.330;7.914;2023-05-09T14:25:42;100059.28;;;18.63;78.51
64644;BME280;51056;50.330;7.914;2023-05-09T14:28:46;100057.50;;;18.54;78.81
64644;BME280;51056;50.330;7.914;2023-05-09T14:31:51;100064.47;;;18.55;78.94
64644;BME280;51056;50.330;7.914;2023-05-09T14:35:01;100050.41;;;18.45;79.45
64644;BME280;51056;50.330;7.914;2023-05-09T14:38:10;100048.63;;;18.35;79.82
64644;BME280;51056;50.330;7.914;2023-05-09T14:41:15;100045.28;;;18.33;81.44
64644;BME280;51056;50.330;7.914;2023-05-09T14:44:23;100036.94;;;18.28;83.71
64644;BME280;51056;50.330;7.914;2023-05-09T14:47:28;100033.31;;;18.29;86.05
64644;BME280;51056;50.330;7.914;2023-05-09T14:50:34;100027.47;;;18.26;87.31
64644;BME280;51056;50.330;7.914;2023-05-09T14:53:40;100021.72;;;18.30;89.27
64644;BME280;51056;50.330;7.914;2023-05-09T14:56:44;100021.16;;;18.36;89.38
64644;BME280;51056;50.330;7.914;2023-05-09T14:59:47;100020.91;;;18.30;91.70
64644;BME280;51056;50.330;7.914;2023-05-09T15:02:50;100009.88;;;18.34;93.00
64644;BME280;51056;50.330;7.914;2023-05-09T15:05:54;100011.03;;;18.22;93.38
64644;BME280;51056;50.330;7.914;2023-05-09T15:09:01;100002.69;;;18.17;93.62
64644;BME280;51056;50.330;7.914;2023-05-09T15:12:13;100005.47;;;18.16;94.23
64644;BME280;51056;50.330;7.914;2023-05-09T15:15:19;99999.63;;;18.12;94.59
64644;BME280;51056;50.330;7.914;2023-05-09T15:18:23;99997.13;;;18.01;95.48
64644;BME280;51056;50.330;7.914;2023-05-09T15:21:30;99984.88;;;17.80;96.51
64644;BME280;51056;50.330;7.914;2023-05-09T15:24:34;99995.59;;;17.88;96.31
64644;BME280;51056;50.330;7.914;2023-05-09T15:27:41;99983.50;;;17.86;96.13
64644;BME280;51056;50.330;7.914;2023-05-09T15:30:44;99980.44;;;17.81;97.57
64644;BME280;51056;50.330;7.914;2023-05-09T15:33:54;99972.09;;;17.85;96.92
64644;BME280;51056;50.330;7.914;2023-05-09T15:36:57;99971.97;;;17.77;97.73
64644;BME280;51056;50.330;7.914;2023-05-09T15:40:01;99967.22;;;17.81;97.66
64644;BME280;51056;50.330;7.914;2023-05-09T15:43:04;99969.31;;;17.77;97.74
64644;BME280;51056;50.330;7.914;2023-05-09T15:46:13;99968.19;;;17.80;97.53
64644;BME280;51056;50.330;7.914;2023-05-09T15:49:17;99968.72;;;17.83;98.24
64644;BME280;51056;50.330;7.914;2023-05-09T15:52:23;99958.13;;;17.74;100.00
64644;BME280;51056;50.330;7.914;2023-05-09T15:55:26;99965.50;;;17.70;100.00
64644;BME280;51056;50.330;7.914;2023-05-09T15:58:29;99942.53;;;17.71;100.00
64644;BME280;51056;50.330;7.914;2023-05-09T16:01:33;99943.41;;;17.61;100.00
64644;BME280;51056;50.330;7.914;2023-05-09T16:04:37;99938.09;;;17.32;100.00
64644;BME280;51056;50.330;7.914;2023-05-09T16:07:45;99934.06;;;17.38;100.00
64644;BME280;51056;50.330;7.914;2023-05-09T16:10:49;99933.41;;;17.46;100.00
64644;BME280;51056;50.330;7.914;2023-05-09T16:13:53;99934.78;;;17.50;100.00
64644;BME280;51056;50.330;7.914;2023-05-09T16:16:57;99933.66;;;17.42;100.00
64644;BME280;51056;50.330;7.914;2023-05-09T16:20:00;99932.41;;;17.47;100.00
64644;BME280;51056;50.330;7.914;2023-05-09T16:23:04;99933.94;;;17.49;100.00